sensor_id;sensor_type;location;lat;lon;timestamp;P1;durP1;ratioP1;P2;durP2;ratioP2
35757;SDS011;21879;50.110;18.900;2022-10-31T00:00:11;18.10;;;10.20;;
35757;SDS011;21879;50.110;18.900;2022-10-31T00:10:59;14.60;;;9.80;;
35757;SDS011;21879;50.110;18.900;2022-10-31T00:21:27;15.80;;;10.60;;
35757;SDS011;21879;50.110;18.900;2022-10-31T00:31:55;16.80;;;11.00;;
35757;SDS011;21879;50.110;18.900;2022-10-31T00:42:23;14.40;;;10.60;;
35757;SDS011;21879;50.110;18.900;2022-10-31T00:52:50;12.40;;;9.00;;
35757;SDS011;21879;50.110;18.900;2022-10-31T01:03:17;16.80;;;10.00;;
35757;SDS011;21879;50.110;18.900;2022-10-31T01:13:45;14.60;;;9.00;;
35757;SDS011;21879;50.110;18.900;2022-10-31T01:24:13;12.40;;;10.00;;
35757;SDS011;21879;50.110;18.900;2022-10-31T01:34:40;17.40;;;11.40;;
35757;SDS011;21879;50.110;18.900;2022-10-31T01:45:10;17.00;;;10.40;;
35757;SDS011;21879;50.110;18.900;2022-10-31T01:55:41;15.50;;;9.50;;
35757;SDS011;21879;50.110;18.900;2022-10-31T02:06:13;17.20;;;11.40;;
35757;SDS011;21879;50.110;18.900;2022-10-31T02:16:49;16.70;;;10.90;;
35757;SDS011;21879;50.110;18.900;2022-10-31T02:27:19;19.60;;;11.20;;
35757;SDS011;21879;50.110;18.900;2022-10-31T02:37:55;13.90;;;10.60;;
35757;SDS011;21879;50.110;18.900;2022-10-31T02:48:32;14.50;;;9.00;;
35757;SDS011;21879;50.110;18.900;2022-10-31T02:59:03;16.70;;;9.50;;
35757;SDS011;21879;50.110;18.900;2022-10-31T03:09:33;15.50;;;10.20;;
35757;SDS011;21879;50.110;18.900;2022-10-31T03:20:07;18.60;;;11.80;;
35757;SDS011;21879;50.110;18.900;2022-10-31T03:30:37;22.20;;;13.60;;
35757;SDS011;21879;50.110;18.900;2022-10-31T03:41:09;19.30;;;12.80;;
35757;SDS011;21879;50.110;18.900;2022-10-31T03:51:42;20.10;;;12.20;;
35757;SDS011;21879;50.110;18.900;2022-10-31T04:02:15;13.70;;;8.50;;
35757;SDS011;21879;50.110;18.900;2022-10-31T04:12:47;11.50;;;8.10;;
35757;SDS011;21879;50.110;18.900;2022-10-31T04:23:19;15.50;;;12.30;;
35757;SDS011;21879;50.110;18.900;2022-10-31T04:33:48;17.90;;;12.20;;
35757;SDS011;21879;50.110;18.900;2022-10-31T04:44:15;14.80;;;9.90;;
35757;SDS011;21879;50.110;18.900;2022-10-31T04:54:43;17.40;;;11.90;;
35757;SDS011;21879;50.110;18.900;2022-10-31T05:05:10;15.10;;;10.70;;
35757;SDS011;21879;50.110;18.900;2022-10-31T05:15:37;25.50;;;16.80;;
35757;SDS011;21879;50.110;18.900;2022-10-31T05:26:05;30.20;;;22.60;;
35757;SDS011;21879;50.110;18.900;2022-10-31T05:36:32;27.50;;;17.60;;
35757;SDS011;21879;50.110;18.900;2022-10-31T05:46:59;27.00;;;19.50;;
35757;SDS011;21879;50.110;18.900;2022-10-31T05:57:27;20.40;;;14.00;;
35757;SDS011;21879;50.110;18.900;2022-10-31T06:07:55;15.20;;;10.50;;
35757;SDS011;21879;50.110;18.900;2022-10-31T06:28:48;14.50;;;10.20;;
35757;SDS011;21879;50.110;18.900;2022-10-31T06:39:16;17.60;;;11.30;;
35757;SDS011;21879;50.110;18.900;2022-10-31T06:49:43;18.80;;;12.80;;
35757;SDS011;21879;50.110;18.900;2022-10-31T07:00:11;21.10;;;12.70;;
35757;SDS011;21879;50.110;18.900;2022-10-31T07:10:40;16.20;;;11.70;;
35757;SDS011;21879;50.110;18.900;2022-10-31T07:21:08;19.10;;;10.90;;
35757;SDS011;21879;50.110;18.900;2022-10-31T07:31:35;17.70;;;11.80;;
35757;SDS011;21879;50.110;18.900;2022-10-31T07:42:03;19.30;;;12.50;;
35757;SDS011;21879;50.110;18.900;2022-10-31T07:52:30;19.90;;;14.30;;
35757;SDS011;21879;50.110;18.900;2022-10-31T08:02:58;18.70;;;12.50;;
35757;SDS011;21879;50.110;18.900;2022-10-31T08:13:27;19.00;;;13.00;;
35757;SDS011;21879;50.110;18.900;2022-10-31T08:23:55;29.80;;;17.50;;
35757;SDS011;21879;50.110;18.900;2022-10-31T08:34:22;21.90;;;15.00;;
35757;SDS011;21879;50.110;18.900;2022-10-31T08:44:49;25.70;;;17.00;;
35757;SDS011;21879;50.110;18.900;2022-10-31T08:55:17;25.90;;;16.90;;
35757;SDS011;21879;50.110;18.900;2022-10-31T09:05:44;25.80;;;16.60;;
35757;SDS011;21879;50.110;18.900;2022-10-31T09:16:12;24.60;;;16.60;;
35757;SDS011;21879;50.110;18.900;2022-10-31T09:26:39;23.80;;;16.30;;
35757;SDS011;21879;50.110;18.900;2022-10-31T09:37:07;23.70;;;16.70;;
35757;SDS011;21879;50.110;18.900;2022-10-31T09:47:38;24.80;;;15.80;;
35757;SDS011;21879;50.110;18.900;2022-10-31T09:58:13;20.30;;;15.20;;
35757;SDS011;21879;50.110;18.900;2022-10-31T10:08:43;19.90;;;12.70;;
35757;SDS011;21879;50.110;18.900;2022-10-31T10:19:14;19.60;;;13.60;;
35757;SDS011;21879;50.110;18.900;2022-10-31T10:29:50;18.70;;;13.70;;
35757;SDS011;21879;50.110;18.900;2022-10-31T10:40:24;19.80;;;12.20;;
35757;SDS011;21879;50.110;18.900;2022-10-31T10:50:53;19.50;;;13.80;;
35757;SDS011;21879;50.110;18.900;2022-10-31T11:01:21;16.20;;;10.40;;
35757;SDS011;21879;50.110;18.900;2022-10-31T11:11:49;18.40;;;13.50;;
35757;SDS011;21879;50.110;18.900;2022-10-31T11:22:17;21.00;;;12.40;;
35757;SDS011;21879;50.110;18.900;2022-10-31T11:32:47;16.30;;;11.00;;
35757;SDS011;21879;50.110;18.900;2022-10-31T11:43:17;19.50;;;9.90;;
35757;SDS011;21879;50.110;18.900;2022-10-31T11:53:49;15.30;;;9.50;;
35757;SDS011;21879;50.110;18.900;2022-10-31T12:04:30;16.90;;;10.00;;
35757;SDS011;21879;50.110;18.900;2022-10-31T12:15:07;13.20;;;9.30;;
35757;SDS011;21879;50.110;18.900;2022-10-31T12:25:50;16.50;;;10.90;;
35757;SDS011;21879;50.110;18.900;2022-10-31T12:36:25;15.10;;;9.60;;
35757;SDS011;21879;50.110;18.900;2022-10-31T12:47:05;14.60;;;9.30;;
35757;SDS011;21879;50.110;18.900;2022-10-31T12:57:47;13.70;;;8.40;;
35757;SDS011;21879;50.110;18.900;2022-10-31T13:08:20;13.10;;;8.30;;
35757;SDS011;21879;50.110;18.900;2022-10-31T13:18:54;14.20;;;8.50;;
35757;SDS011;21879;50.110;18.900;2022-10-31T13:29:27;15.90;;;8.90;;
35757;SDS011;21879;50.110;18.900;2022-10-31T13:40:05;11.50;;;7.80;;
35757;SDS011;21879;50.110;18.900;2022-10-31T13:50:37;10.50;;;8.00;;
35757;SDS011;21879;50.110;18.900;2022-10-31T14:01:12;11.10;;;9.00;;
35757;SDS011;21879;50.110;18.900;2022-10-31T14:11:46;22.40;;;9.70;;
35757;SDS011;21879;50.110;18.900;2022-10-31T14:22:20;12.60;;;7.80;;
35757;SDS011;21879;50.110;18.900;2022-10-31T14:32:50;16.60;;;9.40;;
35757;SDS011;21879;50.110;18.900;2022-10-31T14:43:25;15.00;;;8.90;;
35757;SDS011;21879;50.110;18.900;2022-10-31T14:54:14;16.80;;;9.60;;
35757;SDS011;21879;50.110;18.900;2022-10-31T15:04:44;15.80;;;7.20;;
35757;SDS011;21879;50.110;18.900;2022-10-31T15:15:14;12.40;;;9.20;;
35757;SDS011;21879;50.110;18.900;2022-10-31T15:25:44;13.50;;;8.90;;
35757;SDS011;21879;50.110;18.900;2022-10-31T15:36:18;20.00;;;13.70;;
35757;SDS011;21879;50.110;18.900;2022-10-31T15:46:56;18.30;;;10.50;;
35757;SDS011;21879;50.110;18.900;2022-10-31T15:57:27;12.40;;;8.70;;
35757;SDS011;21879;50.110;18.900;2022-10-31T16:07:55;16.00;;;8.70;;
35757;SDS011;21879;50.110;18.900;2022-10-31T16:28:52;14.70;;;9.80;;
35757;SDS011;21879;50.110;18.900;2022-10-31T16:39:28;12.80;;;8.00;;
35757;SDS011;21879;50.110;18.900;2022-10-31T16:49:55;14.10;;;10.40;;
35757;SDS011;21879;50.110;18.900;2022-10-31T17:00:25;15.30;;;10.30;;
35757;SDS011;21879;50.110;18.900;2022-10-31T17:10:53;20.10;;;11.40;;
35757;SDS011;21879;50.110;18.900;2022-10-31T17:21:22;18.20;;;9.60;;
35757;SDS011;21879;50.110;18.900;2022-10-31T17:31:51;16.40;;;10.20;;
35757;SDS011;21879;50.110;18.900;2022-10-31T17:52:45;13.70;;;8.90;;
35757;SDS011;21879;50.110;18.900;2022-10-31T18:03:13;13.70;;;8.60;;
35757;SDS011;21879;50.110;18.900;2022-10-31T18:13:40;14.10;;;8.90;;
35757;SDS011;21879;50.110;18.900;2022-10-31T18:24:09;20.20;;;13.10;;
35757;SDS011;21879;50.110;18.900;2022-10-31T18:34:36;15.50;;;10.60;;
35757;SDS011;21879;50.110;18.900;2022-10-31T18:45:04;19.40;;;14.00;;
35757;SDS011;21879;50.110;18.900;2022-10-31T18:55:52;24.20;;;18.30;;
35757;SDS011;21879;50.110;18.900;2022-10-31T19:06:20;21.60;;;15.60;;
35757;SDS011;21879;50.110;18.900;2022-10-31T19:16:47;19.90;;;14.70;;
35757;SDS011;21879;50.110;18.900;2022-10-31T19:27:16;19.80;;;12.80;;
35757;SDS011;21879;50.110;18.900;2022-10-31T19:37:43;18.70;;;14.20;;
35757;SDS011;21879;50.110;18.900;2022-10-31T19:48:11;26.90;;;17.10;;
35757;SDS011;21879;50.110;18.900;2022-10-31T19:58:38;28.60;;;20.90;;
35757;SDS011;21879;50.110;18.900;2022-10-31T20:09:07;24.20;;;18.40;;
35757;SDS011;21879;50.110;18.900;2022-10-31T20:19:37;14.10;;;9.90;;
35757;SDS011;21879;50.110;18.900;2022-10-31T20:30:05;39.80;;;26.90;;
35757;SDS011;21879;50.110;18.900;2022-10-31T20:40:34;30.20;;;21.70;;
35757;SDS011;21879;50.110;18.900;2022-10-31T20:51:02;38.20;;;27.00;;
35757;SDS011;21879;50.110;18.900;2022-10-31T21:01:31;33.10;;;24.30;;
35757;SDS011;21879;50.110;18.900;2022-10-31T21:12:01;32.20;;;23.00;;
35757;SDS011;21879;50.110;18.900;2022-10-31T21:32:55;18.60;;;14.70;;
35757;SDS011;21879;50.110;18.900;2022-10-31T21:43:22;32.20;;;27.20;;
35757;SDS011;21879;50.110;18.900;2022-10-31T21:53:50;26.90;;;19.00;;
35757;SDS011;21879;50.110;18.900;2022-10-31T22:04:35;25.60;;;16.40;;
35757;SDS011;21879;50.110;18.900;2022-10-31T22:15:04;42.10;;;24.80;;
35757;SDS011;21879;50.110;18.900;2022-10-31T22:25:35;56.70;;;38.70;;
35757;SDS011;21879;50.110;18.900;2022-10-31T22:36:03;48.90;;;34.40;;
35757;SDS011;21879;50.110;18.900;2022-10-31T22:46:33;47.70;;;30.90;;
35757;SDS011;21879;50.110;18.900;2022-10-31T22:57:01;44.70;;;29.90;;
35757;SDS011;21879;50.110;18.900;2022-10-31T23:07:29;42.20;;;31.70;;
35757;SDS011;21879;50.110;18.900;2022-10-31T23:17:56;51.40;;;31.30;;
35757;SDS011;21879;50.110;18.900;2022-10-31T23:28:24;50.00;;;33.80;;
35757;SDS011;21879;50.110;18.900;2022-10-31T23:38:51;58.70;;;37.40;;
35757;SDS011;21879;50.110;18.900;2022-10-31T23:49:19;58.10;;;38.70;;
35757;SDS011;21879;50.110;18.900;2022-10-31T23:59:46;41.10;;;31.60;;
